createdAt,value
2018-09-18T00:04:31.468Z,1018
2018-09-18T00:09:31.672Z,1018
2018-09-18T00:14:31.701Z,1017.9
2018-09-18T00:19:31.739Z,1018
2018-09-18T00:24:31.688Z,1018
2018-09-18T00:29:33.140Z,1018
2018-09-18T00:34:33.066Z,1018.1
2018-09-18T00:39:45.397Z,1018
2018-09-18T00:44:45.310Z,1018.1
2018-09-18T00:49:45.096Z,1018
2018-09-18T00:54:45.134Z,1018
2018-09-18T00:59:45.318Z,1018
2018-09-18T01:04:45.250Z,1018
2018-09-18T01:09:45.303Z,1018.1
2018-09-18T01:14:47.260Z,1018
2018-09-18T01:19:47.293Z,1018.1
2018-09-18T01:24:57.685Z,1017.9
2018-09-18T01:29:57.599Z,1018
2018-09-18T01:34:57.534Z,1018
2018-09-18T01:39:57.561Z,1017.9
2018-09-18T01:44:57.421Z,1017.9
2018-09-18T01:49:57.535Z,1018
2018-09-18T01:54:57.573Z,1018
2018-09-18T01:59:58.175Z,1018
2018-09-18T02:04:57.878Z,1018.1
2018-09-18T02:10:10.261Z,1018
2018-09-18T02:15:09.927Z,1018
2018-09-18T02:20:10.192Z,1018
2018-09-18T02:25:10.167Z,1018
2018-09-18T02:30:10.226Z,1018
2018-09-18T02:35:10.119Z,1018.2
2018-09-18T02:40:10.024Z,1018.2
2018-09-18T02:45:10.010Z,1018.3
2018-09-18T02:50:10.126Z,1018.3
2018-09-18T02:55:23.046Z,1018.2
2018-09-18T03:00:22.923Z,1018.2
2018-09-18T03:05:23.001Z,1018.2
2018-09-18T03:10:22.731Z,1018.2
2018-09-18T03:15:22.889Z,1018.1
2018-09-18T03:20:22.728Z,1018.2
2018-09-18T03:25:22.861Z,1018.2
2018-09-18T03:30:26.216Z,1018.3
2018-09-18T03:35:25.840Z,1018.2
2018-09-18T03:40:38.441Z,1018.3
2018-09-18T03:45:38.408Z,1018.2
2018-09-18T03:50:38.179Z,1018.2
2018-09-18T03:55:38.174Z,1018.3
2018-09-18T04:00:38.187Z,1018.3
2018-09-18T04:05:38.125Z,1018.3
2018-09-18T04:10:38.226Z,1018.3
2018-09-18T04:15:38.127Z,1018.4
2018-09-18T04:20:38.183Z,1018.4
2018-09-18T04:25:38.186Z,1018.4
2018-09-18T04:30:38.388Z,1018.4
2018-09-18T04:35:38.241Z,1018.5
2018-09-18T04:40:39.393Z,1018.5
2018-09-18T04:45:39.309Z,1018.6
2018-09-18T04:50:51.415Z,1018.6
2018-09-18T04:55:51.353Z,1018.6
2018-09-18T05:00:51.140Z,1018.7
2018-09-18T05:05:51.327Z,1018.7
2018-09-18T05:10:51.257Z,1018.7
2018-09-18T05:15:51.153Z,1018.7
2018-09-18T05:20:51.298Z,1018.8
2018-09-18T05:25:52.075Z,1018.8
2018-09-18T05:30:51.901Z,1018.8
2018-09-18T05:36:04.173Z,1018.7
2018-09-18T05:41:04.002Z,1018.7
2018-09-18T05:46:03.908Z,1018.7
2018-09-18T05:51:03.941Z,1018.7
2018-09-18T05:56:04.331Z,1018.5
2018-09-18T06:01:03.933Z,1018.6
2018-09-18T06:06:04.126Z,1018.6
2018-09-18T06:11:03.928Z,1018.6
2018-09-18T06:16:03.946Z,1018.5
2018-09-18T06:21:04.244Z,1018.5
2018-09-18T06:26:04.395Z,1018.5
2018-09-18T06:31:04.157Z,1018.5
2018-09-18T06:36:04.649Z,1018.4
2018-09-18T06:41:04.544Z,1018.5
2018-09-18T06:46:17.073Z,1018.4
2018-09-18T06:51:16.773Z,1018.4
2018-09-18T06:56:16.918Z,1018.4
2018-09-18T07:01:16.990Z,1018.4
2018-09-18T07:06:17.032Z,1018.4
2018-09-18T07:11:16.816Z,1018.3
2018-09-18T07:16:16.956Z,1018.2
2018-09-18T07:21:17.141Z,1018.2
2018-09-18T07:26:16.816Z,1018.1
2018-09-18T07:31:29.735Z,1018.1
2018-09-18T07:36:29.533Z,1018
2018-09-18T07:41:29.576Z,1017.9
2018-09-18T07:46:29.450Z,1017.9
2018-09-18T07:51:29.421Z,1017.8
2018-09-18T07:56:29.407Z,1017.7
2018-09-18T08:01:29.600Z,1017.8
2018-09-18T08:06:29.755Z,1017.9
2018-09-18T08:11:29.455Z,1017.8
2018-09-18T08:16:29.654Z,1017.7
2018-09-18T08:21:29.449Z,1017.7
2018-09-18T08:26:29.557Z,1017.6
2018-09-18T08:31:30.198Z,1017.5
2018-09-18T08:36:29.928Z,1017.5
2018-09-18T08:41:42.317Z,1017.5
2018-09-18T08:46:42.297Z,1017.5
2018-09-18T08:51:42.602Z,1017.5
2018-09-18T08:56:42.370Z,1017.6
2018-09-18T09:01:42.454Z,1017.5
2018-09-18T09:06:42.742Z,1017.5
2018-09-18T09:11:42.278Z,1017.4
2018-09-18T09:16:42.695Z,1017.3
2018-09-18T09:21:42.767Z,1017.4
2018-09-18T09:26:55.207Z,1017.4
2018-09-18T09:31:54.807Z,1017.2
2018-09-18T09:36:54.788Z,1017.2
2018-09-18T09:41:54.753Z,1017.2
2018-09-18T09:46:54.783Z,1017.1
2018-09-18T09:51:54.604Z,1017.1
2018-09-18T09:56:54.992Z,1017.1
2018-09-18T10:01:54.639Z,1017
2018-09-18T10:06:54.736Z,1017
2018-09-18T10:11:54.875Z,1017
2018-09-18T10:16:54.627Z,1017
2018-09-18T10:21:54.650Z,1017
2018-09-18T10:26:58.420Z,1016.9
2018-09-18T10:31:57.879Z,1016.8
2018-09-18T10:37:08.040Z,1016.8
2018-09-18T10:42:08.359Z,1016.8
2018-09-18T10:47:07.855Z,1016.8
2018-09-18T10:52:07.940Z,1016.7
2018-09-18T10:57:07.951Z,1016.7
2018-09-18T11:02:08.250Z,1016.5
2018-09-18T11:07:08.352Z,1016.5
2018-09-18T11:12:08.457Z,1016.4
2018-09-18T11:17:08.411Z,1016.4
2018-09-18T11:22:21.256Z,1016.3
2018-09-18T11:27:20.460Z,1016.3
2018-09-18T11:32:20.505Z,1016.3
2018-09-18T11:37:20.471Z,1016.1
2018-09-18T11:42:20.554Z,1016
2018-09-18T11:47:20.411Z,1016
2018-09-18T11:52:20.509Z,1016
2018-09-18T11:57:20.390Z,1016.1
2018-09-18T12:02:20.822Z,1016
2018-09-18T12:07:20.630Z,1016
2018-09-18T12:12:20.404Z,1015.9
2018-09-18T12:17:20.579Z,1015.9
2018-09-18T12:22:21.280Z,1015.9
2018-09-18T12:27:20.753Z,1015.8
2018-09-18T12:32:33.053Z,1015.7
2018-09-18T12:37:33.019Z,1015.7
2018-09-18T12:42:33.824Z,1015.6
2018-09-18T12:47:32.904Z,1015.6
2018-09-18T12:52:32.802Z,1015.6
2018-09-18T12:57:33.508Z,1015.5
2018-09-18T13:02:32.984Z,1015.5
2018-09-18T13:07:33.700Z,1015.5
2018-09-18T13:12:33.487Z,1015.4
2018-09-18T13:17:46.025Z,1015.4
2018-09-18T13:22:45.925Z,1015.4
2018-09-18T13:27:46.028Z,1015.3
2018-09-18T13:32:46.092Z,1015.2
2018-09-18T13:37:45.612Z,1015.3
2018-09-18T13:42:45.609Z,1015.1
2018-09-18T13:47:45.803Z,1015.1
2018-09-18T13:52:45.592Z,1015
2018-09-18T13:57:45.591Z,1014.9
2018-09-18T14:02:45.804Z,1014.9
2018-09-18T14:07:45.826Z,1014.9
2018-09-18T14:12:45.730Z,1014.9
2018-09-18T14:17:46.761Z,1014.9
2018-09-18T14:22:46.326Z,1014.9
2018-09-18T14:27:58.652Z,1015
2018-09-18T14:32:58.372Z,1014.9
2018-09-18T14:37:58.892Z,1014.9
2018-09-18T14:42:58.395Z,1014.8
2018-09-18T14:47:58.398Z,1014.7
2018-09-18T14:52:59.452Z,1014.8
2018-09-18T14:57:58.377Z,1014.7
2018-09-18T15:02:58.619Z,1014.7
2018-09-18T15:07:58.623Z,1014.7
2018-09-18T15:13:11.941Z,1014.6
2018-09-18T15:18:11.685Z,1014.6
2018-09-18T15:23:14.577Z,1014.6
2018-09-18T15:28:11.738Z,1014.6
2018-09-18T15:33:11.685Z,1014.7
2018-09-18T15:38:13.115Z,1014.6
2018-09-18T15:43:13.274Z,1014.7
2018-09-18T15:48:12.943Z,1014.6
2018-09-18T15:53:12.861Z,1014.7
2018-09-18T15:58:12.861Z,1014.6
2018-09-18T16:03:12.951Z,1014.6
2018-09-18T16:08:12.880Z,1014.6
2018-09-18T16:13:12.853Z,1014.6
2018-09-18T16:18:12.844Z,1014.5
2018-09-18T16:23:26.232Z,1014.7
2018-09-18T16:28:26.447Z,1014.6
2018-09-18T16:33:25.951Z,1014.6
2018-09-18T16:38:25.986Z,1014.6
2018-09-18T16:43:25.988Z,1014.6
2018-09-18T16:48:26.839Z,1014.7
2018-09-18T16:53:26.438Z,1014.7
2018-09-18T16:58:30.087Z,1014.8
2018-09-18T17:03:29.400Z,1015
2018-09-18T17:08:43.090Z,1015.1
2018-09-18T17:13:42.703Z,1015
2018-09-18T17:18:43.176Z,1015
2018-09-18T17:23:42.699Z,1015.1
2018-09-18T17:28:43.749Z,1015.2
2018-09-18T17:33:44.096Z,1015.2
2018-09-18T17:38:43.750Z,1015.4
2018-09-18T17:43:43.706Z,1015.4
2018-09-18T17:48:43.891Z,1015.5
2018-09-18T17:53:44.216Z,1015.6
2018-09-18T17:58:43.815Z,1015.7
2018-09-18T18:03:43.888Z,1015.8
2018-09-18T18:08:46.028Z,1015.7
2018-09-18T18:13:45.811Z,1015.7
2018-09-18T18:18:59.396Z,1015.7
2018-09-18T18:24:00.206Z,1015.9
2018-09-18T18:28:58.984Z,1015.9
2018-09-18T18:33:59.085Z,1015.9
2018-09-18T18:38:59.196Z,1015.9
2018-09-18T18:43:59.115Z,1016
2018-09-18T18:48:59.262Z,1016.1
2018-09-18T18:53:59.917Z,1016.3
2018-09-18T18:58:59.761Z,1016.4
2018-09-18T19:04:12.176Z,1016.4
2018-09-18T19:09:11.991Z,1016.4
2018-09-18T19:14:11.991Z,1016.5
2018-09-18T19:19:11.813Z,1016.7
2018-09-18T19:24:12.005Z,1016.7
2018-09-18T19:29:18.376Z,1016.7
2018-09-18T19:34:18.405Z,1016.8
2018-09-18T19:39:18.830Z,1016.9
2018-09-18T19:44:19.816Z,1017.1
2018-09-18T19:49:33.475Z,1017.1
2018-09-18T19:54:33.302Z,1017.1
2018-09-18T19:59:33.227Z,1017.1
2018-09-18T20:04:33.271Z,1017.2
2018-09-18T20:09:33.490Z,1017
2018-09-18T20:14:33.120Z,1017.2
2018-09-18T20:19:33.088Z,1017.2
2018-09-18T20:24:33.985Z,1017.2
2018-09-18T20:29:33.759Z,1017.2
2018-09-18T20:34:46.988Z,1017.3
2018-09-18T20:39:46.887Z,1017.3
2018-09-18T20:44:46.964Z,1017.5
2018-09-18T20:49:46.752Z,1017.5
2018-09-18T20:54:46.788Z,1017.6
2018-09-18T20:59:46.787Z,1017.7
2018-09-18T21:04:46.944Z,1017.8
2018-09-18T21:09:47.110Z,1017.9
2018-09-18T21:14:47.094Z,1018.3
2018-09-18T21:20:01.002Z,1018.5
2018-09-18T21:24:59.605Z,1018.6
2018-09-18T21:29:59.619Z,1018.6
2018-09-18T21:34:59.263Z,1018.7
2018-09-18T21:39:59.271Z,1018.7
2018-09-18T21:44:59.383Z,1018.8
2018-09-18T21:49:59.447Z,1018.8
2018-09-18T21:54:59.338Z,1018.9
2018-09-18T21:59:59.482Z,1018.9
2018-09-18T22:05:11.808Z,1019
2018-09-18T22:10:18.577Z,1019.1
2018-09-18T22:15:12.648Z,1019.1
2018-09-18T22:20:12.210Z,1019.1
2018-09-18T22:25:11.543Z,1019.2
2018-09-18T22:30:11.536Z,1019.2
2018-09-18T22:35:11.633Z,1019.3
2018-09-18T22:40:11.929Z,1019.3
2018-09-18T22:45:11.682Z,1019.3
2018-09-18T22:50:11.530Z,1019.3
2018-09-18T22:55:11.565Z,1019.3
2018-09-18T23:00:11.683Z,1019.3
2018-09-18T23:05:14.328Z,1019.3
2018-09-18T23:10:14.105Z,1019.3
2018-09-18T23:15:26.989Z,1019.2
2018-09-18T23:20:26.838Z,1019.3
2018-09-18T23:25:26.917Z,1019.3
2018-09-18T23:30:26.882Z,1019.2
2018-09-18T23:35:26.862Z,1019.2
2018-09-18T23:40:26.832Z,1019.2
2018-09-18T23:45:26.700Z,1019.2
2018-09-18T23:50:27.011Z,1019.2
2018-09-18T23:55:26.759Z,1019.1
